Time;durP1;ratioP1;P1;durP2;ratioP2;P2;SDS_P1;SDS_P2;PMS_P1;PMS_P2;Temp;Humidity;BMP_temperature;BMP_pressure;BME280_temperature;BME280_humidity;BME280_pressure;Samples;Min_cycle;Max_cycle;Signal;HPM_P1;HPM_P2
2023/10/03 00:00:58;;;;;;;56.03;21.00;;;;;;;17.93;100.00;97472.47;5020398;28;20407;-82
2023/10/03 00:03:26;;;;;;;45.50;17.83;;;;;;;17.97;100.00;97468.88;5021172;28;20409;-80
2023/10/03 00:05:54;;;;;;;52.95;19.85;;;;;;;18.04;100.00;97468.50;5019128;28;20430;-81
2023/10/03 00:08:22;;;;;;;45.72;18.00;;;;;;;18.04;100.00;97468.50;5020618;28;20399;-82
2023/10/03 00:10:49;;;;;;;46.87;18.73;;;;;;;18.05;100.00;97459.38;5016882;28;20404;-83
2023/10/03 00:13:17;;;;;;;52.17;21.10;;;;;;;18.05;100.00;97456.69;5025748;28;20402;-82
2023/10/03 00:15:44;;;;;;;42.00;17.10;;;;;;;18.04;100.00;97463.16;5016934;28;20401;-82
2023/10/03 00:18:11;;;;;;;41.33;17.35;;;;;;;17.99;100.00;97461.34;5014147;28;20429;-83
2023/10/03 00:20:37;;;;;;;46.83;18.00;;;;;;;17.96;100.00;97469.19;5022509;28;20393;-83
2023/10/03 00:23:05;;;;;;;47.47;19.08;;;;;;;17.94;100.00;97463.34;5007102;28;20466;-82
2023/10/03 00:25:31;;;;;;;45.53;18.35;;;;;;;17.94;100.00;97466.00;5023498;28;20420;-83
2023/10/03 00:27:59;;;;;;;45.97;18.70;;;;;;;17.92;100.00;97458.28;5020696;28;20400;-81
2023/10/03 00:30:30;;;;;;;48.30;19.50;;;;;;;17.91;100.00;97456.69;5016373;28;20398;-83
2023/10/03 00:32:57;;;;;;;49.08;19.33;;;;;;;17.92;100.00;97458.28;5018039;28;20408;-81
2023/10/03 00:35:25;;;;;;;53.17;20.33;;;;;;;17.95;100.00;97451.53;5018722;28;20758;-81
2023/10/03 00:37:52;;;;;;;51.40;19.13;;;;;;;17.96;100.00;97456.59;5010598;28;20388;-82
2023/10/03 00:42:48;;;;;;;47.75;18.30;;;;;;;17.97;100.00;97444.78;5001434;28;20478;-81
2023/10/03 00:45:19;;;;;;;50.17;19.77;;;;;;;17.99;100.00;97445.28;5012418;28;20398;-81
2023/10/03 00:47:47;;;;;;;51.72;20.38;;;;;;;18.02;100.00;97435.88;5013822;28;20502;-82
2023/10/03 00:50:16;;;;;;;48.85;19.08;;;;;;;18.08;100.00;97443.50;5017917;28;20397;-82
2023/10/03 00:52:45;;;;;;;54.45;19.60;;;;;;;18.11;100.00;97440.25;4997333;28;20772;-82
2023/10/03 00:55:11;;;;;;;50.90;19.63;;;;;;;18.09;100.00;97444.31;5010189;28;20398;-83
2023/10/03 00:57:39;;;;;;;54.03;20.02;;;;;;;18.07;100.00;97441.91;5026393;28;20401;-83
2023/10/03 01:00:16;;;;;;;54.73;20.00;;;;;;;18.07;100.00;97438.44;5017954;28;20404;-82
2023/10/03 01:02:50;;;;;;;52.35;19.67;;;;;;;18.08;100.00;97437.34;5020606;28;20398;-83
2023/10/03 01:05:16;;;;;;;48.50;18.73;;;;;;;18.08;100.00;97435.47;5024104;28;20421;-83
2023/10/03 01:07:49;;;;;;;47.40;18.90;;;;;;;18.07;100.00;97427.72;5022344;28;20421;-83
2023/10/03 01:10:18;;;;;;;42.60;17.48;;;;;;;18.06;100.00;97431.50;5028291;28;20439;-84
2023/10/03 01:12:47;;;;;;;44.20;17.95;;;;;;;18.02;100.00;97436.66;5028105;28;20400;-82
2023/10/03 01:15:21;;;;;;;42.00;17.50;;;;;;;17.95;100.00;97430.13;5020166;28;20402;-84
2023/10/03 01:17:57;;;;;;;38.85;16.63;;;;;;;17.89;100.00;97426.75;5022102;28;20495;-83
2023/10/03 01:20:28;;;;;;;47.47;17.45;;;;;;;17.82;100.00;97420.97;5024364;28;20431;-84
2023/10/03 01:22:55;;;;;;;47.53;17.83;;;;;;;17.74;100.00;97417.09;5025385;28;20401;-82
2023/10/03 01:25:27;;;;;;;47.72;18.15;;;;;;;17.69;100.00;97414.50;5025993;28;20719;-83
2023/10/03 01:27:54;;;;;;;45.22;16.95;;;;;;;17.63;100.00;97417.56;5017907;28;20405;-82
2023/10/03 01:30:21;;;;;;;45.87;17.70;;;;;;;17.62;100.00;97415.97;5025666;28;20522;-81
2023/10/03 01:32:53;;;;;;;44.25;17.63;;;;;;;17.61;100.00;97407.16;5017708;28;20769;-83
2023/10/03 01:35:22;;;;;;;48.15;18.65;;;;;;;17.58;100.00;97410.41;5015679;28;20402;-83
2023/10/03 01:37:49;;;;;;;41.22;17.15;;;;;;;17.57;100.00;97411.50;5013387;28;20399;-83
2023/10/03 01:40:16;;;;;;;42.38;17.13;;;;;;;17.54;100.00;97416.63;5020800;28;20893;-82
2023/10/03 01:42:46;;;;;;;39.35;15.93;;;;;;;17.51;100.00;97412.69;5012205;28;20404;-83
2023/10/03 01:45:15;;;;;;;37.42;15.75;;;;;;;17.48;100.00;97409.78;5024815;28;20400;-82
2023/10/03 01:47:45;;;;;;;42.60;17.08;;;;;;;17.44;100.00;97406.13;5018584;28;20396;-82
2023/10/03 01:50:11;;;;;;;37.78;15.63;;;;;;;17.39;100.00;97407.00;5023269;28;20397;-82
2023/10/03 01:52:39;;;;;;;43.80;16.75;;;;;;;17.30;100.00;97400.72;5022608;28;20416;-82
2023/10/03 01:55:07;;;;;;;44.88;17.27;;;;;;;17.27;100.00;97395.97;5013883;28;20902;-84
2023/10/03 01:57:33;;;;;;;43.92;17.42;;;;;;;17.26;100.00;97392.50;5021108;28;20392;-81
2023/10/03 02:00:01;;;;;;;39.83;16.60;;;;;;;17.26;100.00;97387.16;5012205;28;20509;-81
2023/10/03 02:02:28;;;;;;;42.67;17.00;;;;;;;17.28;100.00;97384.19;5009640;28;20413;-83
2023/10/03 02:04:54;;;;;;;37.33;15.68;;;;;;;17.28;100.00;97384.97;5015683;28;20397;-83
2023/10/03 02:07:21;;;;;;;41.50;17.27;;;;;;;17.29;100.00;97385.78;5021154;28;20865;-81
2023/10/03 02:09:48;;;;;;;39.47;16.40;;;;;;;17.29;100.00;97375.06;5005647;28;20445;-83
2023/10/03 02:12:15;;;;;;;43.70;17.53;;;;;;;17.26;100.00;97381.00;5002862;28;20410;-82
2023/10/03 02:14:42;;;;;;;39.03;15.75;;;;;;;17.21;100.00;97365.84;5014952;28;20426;-82
2023/10/03 02:17:09;;;;;;;39.35;15.90;;;;;;;17.17;100.00;97374.72;5009886;28;20394;-82
2023/10/03 02:19:35;;;;;;;39.13;16.25;;;;;;;17.11;100.00;97374.03;5019127;28;20436;-81
2023/10/03 02:22:02;;;;;;;45.50;18.23;;;;;;;17.05;100.00;97367.19;5011480;28;20681;-81
2023/10/03 02:24:28;;;;;;;41.72;17.25;;;;;;;16.97;100.00;97362.50;5012217;28;20962;-81
2023/10/03 02:26:54;;;;;;;41.22;17.00;;;;;;;16.93;100.00;97364.16;5020640;28;20447;-81
2023/10/03 02:29:21;;;;;;;47.10;17.88;;;;;;;16.88;100.00;97361.56;5023144;28;20459;-82
2023/10/03 02:31:47;;;;;;;38.08;15.90;;;;;;;16.81;100.00;97359.28;5014943;28;20859;-83
2023/10/03 02:34:14;;;;;;;42.97;16.43;;;;;;;16.76;100.00;97353.22;5020713;28;20424;-82
2023/10/03 02:36:41;;;;;;;41.42;16.77;;;;;;;16.74;100.00;97348.16;5016215;28;20398;-83
2023/10/03 02:39:08;;;;;;;38.13;15.27;;;;;;;16.69;100.00;97340.19;5017678;28;20420;-82
2023/10/03 02:41:35;;;;;;;38.38;15.45;;;;;;;16.64;100.00;97340.28;5008800;28;20418;-83
2023/10/03 02:44:01;;;;;;;41.05;16.05;;;;;;;16.62;100.00;97331.75;5007828;28;20407;-83
2023/10/03 02:46:29;;;;;;;41.77;16.83;;;;;;;16.60;100.00;97326.72;5022890;28;20439;-81
2023/10/03 02:48:56;;;;;;;39.67;15.63;;;;;;;16.58;100.00;97342.22;5020432;28;20447;-83
2023/10/03 02:51:23;;;;;;;40.03;16.20;;;;;;;16.56;100.00;97335.56;5016713;28;20781;-82
2023/10/03 02:53:51;;;;;;;36.65;15.30;;;;;;;16.54;100.00;97333.19;5007273;28;20466;-81
2023/10/03 02:56:17;;;;;;;36.43;14.40;;;;;;;16.53;100.00;97322.81;5017163;28;20397;-82
2023/10/03 02:58:43;;;;;;;42.45;16.05;;;;;;;16.52;100.00;97322.00;5019536;28;20421;-80
2023/10/03 03:01:09;;;;;;;37.27;15.90;;;;;;;16.51;100.00;97322.28;5003563;28;20398;-83
2023/10/03 03:03:36;;;;;;;40.55;16.45;;;;;;;16.49;100.00;97321.78;5011105;28;20943;-83
2023/10/03 03:06:09;;;;;;;35.75;15.18;;;;;;;16.45;100.00;97326.91;5021100;28;20404;-82
2023/10/03 03:08:39;;;;;;;31.90;13.38;;;;;;;16.41;100.00;97328.56;5013955;28;20611;-82
2023/10/03 03:11:06;;;;;;;37.13;14.70;;;;;;;16.41;100.00;97333.13;5021141;28;20412;-81
2023/10/03 03:13:34;;;;;;;38.72;15.25;;;;;;;16.40;100.00;97342.22;5023173;28;20459;-82
2023/10/03 03:16:03;;;;;;;38.45;14.98;;;;;;;16.35;100.00;97336.94;5024716;28;20412;-83
2023/10/03 03:18:31;;;;;;;32.53;13.80;;;;;;;16.31;100.00;97327.94;5028968;28;20426;-82
2023/10/03 03:20:57;;;;;;;35.03;14.57;;;;;;;16.28;100.00;97331.97;5017558;28;20497;-81
2023/10/03 03:23:29;;;;;;;36.47;14.57;;;;;;;16.24;100.00;97322.94;5021294;28;20413;-83
2023/10/03 03:26:12;;;;;;;39.75;15.32;;;;;;;16.21;100.00;97339.56;5015609;28;20421;-83
2023/10/03 03:28:39;;;;;;;35.27;14.47;;;;;;;16.17;100.00;97333.19;5012548;28;20733;-83
2023/10/03 03:31:16;;;;;;;31.97;13.80;;;;;;;16.13;100.00;97327.63;5019772;28;20394;-82
2023/10/03 03:33:45;;;;;;;33.63;13.70;;;;;;;16.11;100.00;97331.66;5016709;28;20408;-81
2023/10/03 03:36:17;;;;;;;29.17;12.60;;;;;;;16.10;100.00;97332.75;5023279;28;20432;-82
2023/10/03 03:38:44;;;;;;;32.67;13.53;;;;;;;16.09;100.00;97329.28;5014196;28;20421;-81
2023/10/03 03:41:12;;;;;;;38.05;14.02;;;;;;;16.13;100.00;97327.63;5022708;28;20408;-81
2023/10/03 03:43:38;;;;;;;33.78;13.45;;;;;;;16.17;100.00;97335.84;5017847;28;20407;-81
2023/10/03 03:46:05;;;;;;;31.85;12.88;;;;;;;16.23;100.00;97338.19;5011386;28;20869;-82
2023/10/03 03:48:34;;;;;;;26.98;11.52;;;;;;;16.26;100.00;97326.91;5015218;28;20408;-82
2023/10/03 03:51:00;;;;;;;29.05;12.80;;;;;;;16.31;100.00;97336.75;5023662;28;20432;-82
2023/10/03 03:53:26;;;;;;;26.60;10.82;;;;;;;16.38;100.00;97334.50;5006663;28;20414;-83
2023/10/03 03:55:54;;;;;;;27.58;12.70;;;;;;;16.43;100.00;97325.63;5023757;28;20399;-81
2023/10/03 03:58:22;;;;;;;25.95;11.23;;;;;;;16.50;100.00;97331.38;5006653;28;20425;-84
2023/10/03 04:00:51;;;;;;;28.38;11.77;;;;;;;16.59;100.00;97332.31;5014127;28;20451;-82
2023/10/03 04:03:18;;;;;;;33.47;12.88;;;;;;;16.64;100.00;97325.03;5004917;28;20402;-83
2023/10/03 04:05:49;;;;;;;26.80;11.23;;;;;;;16.72;100.00;97328.94;5007260;28;20841;-82
2023/10/03 04:08:18;;;;;;;28.60;12.00;;;;;;;16.79;100.00;97328.56;5017609;28;20411;-84
2023/10/03 04:10:44;;;;;;;23.15;10.18;;;;;;;16.88;100.00;97327.59;4995134;28;20908;-81
2023/10/03 04:13:11;;;;;;;27.88;11.52;;;;;;;17.08;100.00;97314.97;4994796;28;20424;-82
2023/10/03 04:15:39;;;;;;;25.55;11.07;;;;;;;17.18;100.00;97304.91;5017232;28;20410;-83
2023/10/03 04:18:06;;;;;;;25.97;10.30;;;;;;;17.34;100.00;97306.19;5009374;28;20395;-82
2023/10/03 04:20:35;;;;;;;24.63;10.95;;;;;;;17.42;100.00;97302.84;5017208;28;20406;-81
2023/10/03 04:23:03;;;;;;;26.83;10.83;;;;;;;17.51;100.00;97310.97;5007455;28;20421;-83
2023/10/03 04:25:30;;;;;;;28.38;12.00;;;;;;;17.56;100.00;97305.53;4993173;28;20478;-83
2023/10/03 04:27:57;;;;;;;26.30;10.50;;;;;;;17.64;100.00;97309.41;5023054;28;20821;-81
2023/10/03 04:30:25;;;;;;;21.48;9.75;;;;;;;17.68;100.00;97307.72;5018416;28;20400;-83
2023/10/03 04:32:54;;;;;;;23.60;9.30;;;;;;;17.77;100.00;97303.25;4996544;28;20901;-83
2023/10/03 04:35:22;;;;;;;27.83;10.70;;;;;;;17.80;100.00;97302.66;5010705;28;20431;-82
2023/10/03 04:37:51;;;;;;;24.02;9.60;;;;;;;17.84;100.00;97309.00;5005982;28;20413;-82
2023/10/03 04:40:22;;;;;;;19.05;9.23;;;;;;;17.88;100.00;97299.28;5019227;28;20451;-82
2023/10/03 04:42:49;;;;;;;23.80;9.80;;;;;;;17.88;100.00;97299.28;5005217;28;20459;-82
2023/10/03 04:45:18;;;;;;;23.00;9.73;;;;;;;17.91;100.00;97300.56;5009607;28;20397;-79
2023/10/03 04:47:45;;;;;;;17.15;8.38;;;;;;;17.98;100.00;97298.25;5005348;28;20405;-82
2023/10/03 04:50:16;;;;;;;22.45;9.55;;;;;;;18.02;100.00;97301.94;5021967;28;20495;-83
2023/10/03 04:52:42;;;;;;;24.25;10.02;;;;;;;18.01;100.00;97309.19;5021335;28;20415;-83
2023/10/03 04:55:09;;;;;;;20.10;9.00;;;;;;;18.07;100.00;97304.50;5021903;28;20401;-84
2023/10/03 04:57:35;;;;;;;21.55;8.70;;;;;;;18.04;100.00;97308.56;5014002;28;20483;-81
2023/10/03 05:00:04;;;;;;;20.60;8.20;;;;;;;18.02;100.00;97309.97;5016228;28;20430;-83
2023/10/03 05:02:30;;;;;;;21.33;9.23;;;;;;;18.02;100.00;97310.78;5019200;28;20424;-83
2023/10/03 05:04:56;;;;;;;19.27;8.10;;;;;;;18.03;100.00;97306.22;5017689;28;20413;-81
2023/10/03 05:07:24;;;;;;;17.77;7.40;;;;;;;18.05;100.00;97306.69;5014704;28;20949;-80
2023/10/03 05:09:51;;;;;;;17.67;7.60;;;;;;;18.02;100.00;97307.28;5022385;28;20401;-82
2023/10/03 05:12:17;;;;;;;18.13;8.27;;;;;;;18.04;100.00;97305.88;5022529;28;20397;-84
2023/10/03 05:14:46;;;;;;;19.02;8.18;;;;;;;18.08;100.00;97308.75;5010043;28;20402;-83
2023/10/03 05:17:15;;;;;;;23.10;8.60;;;;;;;18.11;100.00;97303.63;5019403;28;20471;-83
2023/10/03 05:19:41;;;;;;;20.67;8.17;;;;;;;18.14;100.00;97311.03;5019954;28;20430;-83
2023/10/03 05:22:08;;;;;;;28.70;8.02;;;;;;;18.18;100.00;97306.66;5011840;28;20407;-83
2023/10/03 05:24:36;;;;;;;19.02;8.38;;;;;;;18.17;100.00;97307.75;5022421;28;20504;-83
2023/10/03 05:27:04;;;;;;;14.30;6.95;;;;;;;18.19;100.00;97312.81;5015895;28;20401;-83
2023/10/03 05:29:30;;;;;;;21.25;8.50;;;;;;;18.18;100.00;97311.22;5012721;28;20411;-81
2023/10/03 05:32:00;;;;;;;16.77;7.63;;;;;;;18.19;100.00;97313.59;5012755;28;20402;-81
2023/10/03 05:34:29;;;;;;;18.70;8.07;;;;;;;18.16;100.00;97308.06;5010077;28;20409;-82
2023/10/03 05:36:55;;;;;;;21.23;8.15;;;;;;;18.13;100.00;97314.81;5000421;28;20937;-78
2023/10/03 05:39:22;;;;;;;21.53;8.27;;;;;;;18.18;100.00;97314.72;4994849;28;20426;-78
2023/10/03 05:41:56;;;;;;;19.48;8.52;;;;;;;18.17;100.00;97315.00;5009475;28;20424;-78
2023/10/03 05:44:22;;;;;;;18.30;7.75;;;;;;;18.16;100.00;97318.78;5010835;28;20400;-78
2023/10/03 05:46:53;;;;;;;18.83;8.02;;;;;;;18.19;100.00;97318.19;5011694;28;20545;-78
2023/10/03 05:49:19;;;;;;;16.85;7.55;;;;;;;18.21;100.00;97321.34;5007955;28;20393;-82
2023/10/03 05:51:45;;;;;;;12.15;6.63;;;;;;;18.22;100.00;97327.50;5016929;28;20401;-81
2023/10/03 05:54:12;;;;;;;14.23;6.97;;;;;;;18.22;100.00;97324.81;4995751;28;20435;-82
2023/10/03 05:56:38;;;;;;;20.45;8.07;;;;;;;18.19;100.00;97328.91;5002510;28;20471;-85
2023/10/03 05:59:06;;;;;;;13.93;6.88;;;;;;;18.20;100.00;97327.78;5020526;28;20421;-85
2023/10/03 06:01:33;;;;;;;17.70;8.35;;;;;;;18.17;100.00;97323.84;4997277;28;20415;-83
2023/10/03 06:03:59;;;;;;;15.63;7.78;;;;;;;18.19;100.00;97332.34;5026252;28;20393;-84
2023/10/03 06:06:28;;;;;;;17.27;7.10;;;;;;;18.22;100.00;97330.16;5020123;28;20412;-88
2023/10/03 06:08:54;;;;;;;17.35;7.95;;;;;;;18.23;100.00;97335.22;5011992;28;20417;-88
2023/10/03 06:11:21;;;;;;;14.82;7.00;;;;;;;18.27;100.00;97338.13;5018669;28;20676;-83
2023/10/03 06:13:47;;;;;;;15.97;6.73;;;;;;;18.26;100.00;97339.19;5017988;28;20400;-81
2023/10/03 06:16:15;;;;;;;15.35;7.03;;;;;;;18.26;100.00;97339.19;5003122;28;20410;-81
2023/10/03 06:18:41;;;;;;;13.00;6.07;;;;;;;18.25;100.00;97337.63;5009659;28;20646;-83
2023/10/03 06:21:07;;;;;;;15.50;6.75;;;;;;;18.27;100.00;97338.13;5009383;28;20832;-84
2023/10/03 06:23:33;;;;;;;14.67;6.87;;;;;;;18.26;100.00;97337.31;5000244;28;20394;-83
2023/10/03 06:26:00;;;;;;;11.13;5.53;;;;;;;18.26;100.00;97344.56;5016066;28;20411;-84
2023/10/03 06:28:26;;;;;;;10.75;5.68;;;;;;;18.23;100.00;97342.47;5014999;28;20417;-84
2023/10/03 06:30:52;;;;;;;13.85;6.28;;;;;;;18.20;100.00;97343.84;5015711;28;20435;-82
2023/10/03 06:33:19;;;;;;;14.38;6.30;;;;;;;18.19;100.00;97343.06;5007906;28;20484;-82
2023/10/03 06:35:46;;;;;;;12.35;5.70;;;;;;;18.24;100.00;97346.75;5004014;28;20724;-82
2023/10/03 06:38:14;;;;;;;10.88;5.68;;;;;;;18.35;100.00;97348.09;5011790;28;20405;-81
2023/10/03 06:40:41;;;;;;;12.33;5.57;;;;;;;18.49;100.00;97344.28;5015223;28;20781;-81
2023/10/03 06:43:07;;;;;;;10.80;5.50;;;;;;;18.65;100.00;97346.63;5009987;28;20397;-81
2023/10/03 06:45:33;;;;;;;14.88;6.00;;;;;;;18.80;100.00;97344.41;5010025;28;20405;-82
2023/10/03 06:48:03;;;;;;;12.38;5.75;;;;;;;18.96;100.00;97358.22;5007347;28;20744;-81
2023/10/03 06:50:31;;;;;;;11.02;5.80;;;;;;;19.12;100.00;97345.25;5007505;28;20476;-80
2023/10/03 06:52:58;;;;;;;11.45;5.38;;;;;;;19.25;100.00;97347.84;5009552;28;20401;-80
2023/10/03 06:55:24;;;;;;;12.32;5.88;;;;;;;19.48;100.00;97345.13;5014454;28;20408;-81
2023/10/03 06:57:50;;;;;;;11.27;5.88;;;;;;;19.64;100.00;97346.31;5013023;28;20459;-83
2023/10/03 07:00:20;;;;;;;11.77;5.95;;;;;;;19.80;100.00;97350.16;5015955;28;20812;-82
2023/10/03 07:02:46;;;;;;;18.73;6.80;;;;;;;20.03;100.00;97346.28;5012359;28;20409;-80
2023/10/03 07:05:12;;;;;;;13.18;6.03;;;;;;;20.23;100.00;97349.47;5008684;28;20404;-83
2023/10/03 07:07:40;;;;;;;14.02;5.93;;;;;;;20.37;100.00;97353.63;5013344;28;20461;-82
2023/10/03 07:10:09;;;;;;;16.23;6.43;;;;;;;20.50;100.00;97360.00;5011559;28;20408;-81
2023/10/03 07:12:35;;;;;;;13.30;5.73;;;;;;;20.64;100.00;97363.31;5014967;28;20932;-83
2023/10/03 07:15:01;;;;;;;12.45;5.88;;;;;;;20.76;100.00;97370.75;5016160;28;20832;-82
2023/10/03 07:17:27;;;;;;;11.27;5.85;;;;;;;20.88;100.00;97362.06;5013627;28;20393;-83
2023/10/03 07:19:53;;;;;;;15.15;5.75;;;;;;;20.86;100.00;97363.16;5015264;28;20423;-83
2023/10/03 07:22:20;;;;;;;12.32;5.65;;;;;;;21.00;100.00;97367.56;5016825;28;20396;-85
2023/10/03 07:24:47;;;;;;;13.20;6.10;;;;;;;21.04;100.00;97360.47;5008838;28;20507;-83
2023/10/03 07:27:15;;;;;;;13.10;6.07;;;;;;;21.23;100.00;97360.91;5016455;28;20397;-83
2023/10/03 07:29:44;;;;;;;14.38;6.32;;;;;;;21.18;100.00;97359.19;5016507;28;20405;-83
2023/10/03 07:32:14;;;;;;;12.18;5.72;;;;;;;21.29;100.00;97364.22;5015812;28;20469;-82
2023/10/03 07:34:45;;;;;;;9.77;5.00;;;;;;;21.46;100.00;97356.91;5013739;28;20456;-82
2023/10/03 07:37:12;;;;;;;10.60;5.28;;;;;;;21.47;100.00;97358.47;5008925;28;20406;-83
2023/10/03 07:39:39;;;;;;;13.13;6.13;;;;;;;21.44;100.00;97355.63;5008800;28;20947;-83
2023/10/03 07:42:07;;;;;;;15.98;6.20;;;;;;;21.53;100.00;97353.69;5012644;28;20735;-84
2023/10/03 07:44:33;;;;;;;11.73;5.38;;;;;;;21.68;100.00;97347.00;5014876;28;20724;-84
2023/10/03 07:47:00;;;;;;;11.52;5.25;;;;;;;21.79;100.00;97349.00;5016865;28;20483;-84
2023/10/03 07:49:28;;;;;;;13.00;5.93;;;;;;;21.89;100.00;97351.31;5016009;28;20566;-86
2023/10/03 07:51:56;;;;;;;10.43;5.18;;;;;;;22.16;99.40;97357.41;5019422;28;20403;-79
2023/10/03 07:54:22;;;;;;;11.63;5.80;;;;;;;22.21;97.73;97354.50;5014780;28;20397;-81
2023/10/03 07:56:48;;;;;;;10.85;5.50;;;;;;;22.42;97.09;97365.31;5016004;28;20481;-82
2023/10/03 07:59:17;;;;;;;13.38;5.78;;;;;;;22.38;96.68;97354.41;5014971;28;20448;-80
2023/10/03 08:01:44;;;;;;;16.38;6.00;;;;;;;22.45;95.98;97356.59;5014489;28;21022;-81
2023/10/03 08:04:12;;;;;;;12.18;5.32;;;;;;;22.70;94.40;97356.38;5015841;28;20413;-82
2023/10/03 08:06:39;;;;;;;15.75;5.78;;;;;;;22.93;93.50;97362.22;5013726;28;20399;-82
2023/10/03 08:09:08;;;;;;;12.40;5.90;;;;;;;23.24;92.89;97369.09;5015859;28;20405;-81
2023/10/03 08:11:35;;;;;;;12.02;5.40;;;;;;;23.48;90.93;97361.09;5017987;28;20482;-81
2023/10/03 08:14:17;;;;;;;12.48;5.57;;;;;;;23.81;89.92;97369.94;5017723;28;20825;-81
2023/10/03 08:16:46;;;;;;;14.35;6.30;;;;;;;24.17;90.09;97369.13;5017293;28;20410;-82
2023/10/03 08:19:25;;;;;;;8.75;5.03;;;;;;;24.71;88.38;97370.75;5017621;28;20448;-81
2023/10/03 08:21:52;;;;;;;10.65;5.40;;;;;;;25.05;86.10;97368.28;5018282;28;20433;-82
2023/10/03 08:24:24;;;;;;;11.07;5.07;;;;;;;25.75;83.12;97362.38;5011898;28;20785;-83
2023/10/03 08:26:51;;;;;;;10.60;4.63;;;;;;;25.57;83.31;97359.19;5020319;28;20404;-83
2023/10/03 08:29:23;;;;;;;11.48;5.70;;;;;;;25.72;83.14;97360.34;5022117;28;20443;-82
2023/10/03 08:31:58;;;;;;;13.75;5.47;;;;;;;25.81;81.47;97369.09;5019350;28;20416;-83
2023/10/03 08:34:25;;;;;;;10.75;5.25;;;;;;;25.40;81.95;97360.31;5014973;28;20409;-85
2023/10/03 08:36:54;;;;;;;10.23;5.20;;;;;;;25.02;81.38;97360.84;5020145;28;20417;-85
2023/10/03 08:39:22;;;;;;;10.67;5.47;;;;;;;24.77;83.46;97356.63;5016784;28;20428;-83
2023/10/03 08:41:54;;;;;;;13.13;5.50;;;;;;;24.27;83.95;97357.88;5017893;28;20409;-81
2023/10/03 08:44:23;;;;;;;9.57;4.95;;;;;;;24.22;86.75;97360.00;5017897;28;20403;-83
2023/10/03 08:46:55;;;;;;;9.77;4.90;;;;;;;24.40;86.95;97364.06;5009323;28;20484;-83
2023/10/03 08:49:27;;;;;;;9.83;4.90;;;;;;;24.34;87.01;97354.59;5008123;28;20423;-84
2023/10/03 08:51:54;;;;;;;12.02;5.45;;;;;;;24.26;86.44;97363.63;5020827;28;20482;-85
2023/10/03 08:54:20;;;;;;;8.35;4.63;;;;;;;24.26;87.57;97364.44;5015844;28;20401;-82
2023/10/03 08:56:46;;;;;;;6.93;4.13;;;;;;;24.39;87.96;97359.78;5009561;28;20397;-81
2023/10/03 08:59:15;;;;;;;12.32;6.20;;;;;;;24.40;86.96;97369.47;5009590;28;20492;-83
2023/10/03 09:01:45;;;;;;;11.02;4.72;;;;;;;24.51;87.97;97362.44;5019700;28;20401;-82
2023/10/03 09:04:18;;;;;;;10.57;4.85;;;;;;;24.71;87.96;97366.13;5019974;28;20843;-82
2023/10/03 09:06:45;;;;;;;12.00;5.90;;;;;;;24.84;88.33;97364.16;5021316;28;20413;-81
2023/10/03 09:09:13;;;;;;;11.05;5.30;;;;;;;24.90;87.79;97357.38;5011795;28;20451;-81
2023/10/03 09:11:41;;;;;;;11.00;5.10;;;;;;;24.84;86.07;97356.81;5018938;28;20411;-82
2023/10/03 09:14:09;;;;;;;9.50;4.95;;;;;;;24.94;85.76;97364.50;5021323;28;20389;-81
2023/10/03 09:16:38;;;;;;;10.93;5.15;;;;;;;24.98;84.80;97362.66;5008531;28;20397;-81
2023/10/03 09:19:05;;;;;;;9.18;4.47;;;;;;;24.91;85.23;97367.88;5016982;28;20471;-82
2023/10/03 09:21:33;;;;;;;13.60;5.60;;;;;;;24.57;86.37;97358.41;5022375;28;20387;-80
2023/10/03 09:24:01;;;;;;;11.80;5.00;;;;;;;24.52;86.47;97366.72;5019221;28;20409;-81
2023/10/03 09:26:45;;;;;;;9.05;4.22;;;;;;;24.49;87.17;97359.31;5021623;28;20397;-82
2023/10/03 09:29:11;;;;;;;10.13;4.15;;;;;;;24.44;88.66;97359.53;5023526;28;20480;-84
2023/10/03 09:31:38;;;;;;;7.07;4.00;;;;;;;24.50;89.74;97355.47;5023598;28;20437;-81
2023/10/03 09:34:04;;;;;;;7.43;3.67;;;;;;;24.63;90.46;97359.72;5023967;28;20488;-81
2023/10/03 09:36:35;;;;;;;6.32;3.67;;;;;;;24.76;91.06;97356.97;5023529;28;20412;-84
2023/10/03 09:39:02;;;;;;;5.72;3.40;;;;;;;24.90;91.30;97358.19;5021447;28;20447;-82
2023/10/03 09:41:30;;;;;;;8.65;4.03;;;;;;;25.23;91.73;97352.50;5025599;28;20404;-84
2023/10/03 09:43:56;;;;;;;4.72;3.08;;;;;;;25.57;91.82;97355.69;5026459;28;20397;-83
2023/10/03 09:46:24;;;;;;;6.78;3.85;;;;;;;25.84;91.45;97349.44;5027007;28;20404;-81
2023/10/03 09:48:53;;;;;;;6.78;3.80;;;;;;;26.12;90.56;97343.88;5026286;28;20416;-84
2023/10/03 09:51:36;;;;;;;8.50;4.45;;;;;;;26.47;87.72;97330.31;5025875;28;20846;-83
2023/10/03 09:54:09;;;;;;;7.72;4.30;;;;;;;27.09;84.99;97340.16;5012171;28;20389;-83
2023/10/03 09:56:40;;;;;;;14.77;5.50;;;;;;;27.58;79.88;97329.44;5024348;28;20413;-84
2023/10/03 09:59:07;;;;;;;9.07;4.50;;;;;;;28.28;77.54;97322.72;5008811;28;20424;-84
2023/10/03 10:01:34;;;;;;;7.70;4.10;;;;;;;28.55;76.94;97321.56;5026705;28;20401;-84
2023/10/03 10:04:03;;;;;;;8.05;4.40;;;;;;;28.75;75.48;97314.81;5017150;28;20451;-83
2023/10/03 10:06:37;;;;;;;13.55;4.82;;;;;;;28.46;74.21;97300.03;5023490;28;20400;-80
2023/10/03 10:09:23;;;;;;;10.30;5.55;;;;;;;28.08;73.94;97309.22;5022164;28;20494;-84
2023/10/03 10:12:09;;;;;;;10.82;4.80;;;;;;;27.80;75.59;97303.34;5024153;28;20413;-84
2023/10/03 10:15:00;;;;;;;9.35;4.90;;;;;;;27.45;76.52;97305.44;5023439;28;20472;-81
2023/10/03 10:17:45;;;;;;;6.77;4.00;;;;;;;27.31;77.92;97297.84;5006740;28;20481;-84
2023/10/03 10:20:19;;;;;;;12.00;5.22;;;;;;;26.93;77.71;97307.63;5025280;28;20463;-83
2023/10/03 10:23:13;;;;;;;12.13;5.10;;;;;;;26.85;77.77;97311.31;5018780;28;20400;-84
2023/10/03 10:25:42;;;;;;;8.98;4.40;;;;;;;26.74;79.06;97304.91;5006323;28;20412;-81
2023/10/03 10:28:10;;;;;;;7.93;4.47;;;;;;;26.65;80.14;97309.78;5024874;28;20393;-83
2023/10/03 10:30:38;;;;;;;11.48;4.78;;;;;;;26.71;80.72;97318.41;5026415;28;20439;-83
2023/10/03 10:33:23;;;;;;;8.90;4.35;;;;;;;26.56;79.78;97301.03;5020430;28;20399;-83
2023/10/03 10:35:50;;;;;;;8.33;4.63;;;;;;;26.68;79.43;97309.06;5024566;28;20424;-82
2023/10/03 10:38:17;;;;;;;7.93;4.57;;;;;;;26.60;78.88;97310.06;5024600;28;20404;-83
2023/10/03 10:41:29;;;;;;;9.70;4.65;;;;;;;26.42;80.91;97312.41;5024367;28;20423;-84
2023/10/03 10:44:07;;;;;;;13.02;5.15;;;;;;;26.32;80.07;97318.38;5024459;28;20735;-84
2023/10/03 10:46:35;;;;;;;8.80;4.72;;;;;;;26.24;81.46;97313.91;5021938;28;20407;-84
2023/10/03 10:49:06;;;;;;;13.43;5.00;;;;;;;26.34;80.30;97315.31;5021326;28;20461;-83
2023/10/03 10:51:34;;;;;;;8.15;4.68;;;;;;;26.67;80.80;97306.72;5021225;28;20424;-82
2023/10/03 10:54:02;;;;;;;8.40;4.30;;;;;;;26.90;79.46;97310.31;5024923;28;20428;-84
2023/10/03 10:56:28;;;;;;;12.77;5.57;;;;;;;26.77;78.70;97319.69;5008606;28;20486;-83
2023/10/03 10:59:07;;;;;;;9.10;4.75;;;;;;;26.71;78.64;97310.25;5021288;28;20421;-81
2023/10/03 11:01:41;;;;;;;9.55;4.80;;;;;;;26.84;79.53;97309.00;5021445;28;20400;-83
2023/10/03 11:04:21;;;;;;;10.57;4.82;;;;;;;27.31;78.86;97308.72;5022876;28;20397;-82
2023/10/03 11:06:50;;;;;;;8.05;4.20;;;;;;;27.41;78.47;97310.06;5024483;28;20464;-83
2023/10/03 11:09:20;;;;;;;7.37;4.33;;;;;;;27.38;78.45;97302.59;5023285;28;20483;-82
2023/10/03 11:11:46;;;;;;;7.13;4.38;;;;;;;27.37;80.22;97320.84;5026963;28;20436;-83
2023/10/03 11:14:23;;;;;;;10.93;4.80;;;;;;;27.31;79.22;97317.66;5021846;28;20397;-81
2023/10/03 11:16:51;;;;;;;8.20;4.50;;;;;;;27.15;80.50;97333.28;5020522;28;20460;-82
2023/10/03 11:19:17;;;;;;;13.57;5.00;;;;;;;27.02;80.03;97317.50;5019178;28;20429;-82
2023/10/03 11:21:44;;;;;;;10.60;4.85;;;;;;;26.89;80.10;97305.97;5021691;28;20397;-82
2023/10/03 11:24:13;;;;;;;9.15;5.20;;;;;;;26.77;80.53;97319.69;5022739;28;20896;-81
2023/10/03 11:26:43;;;;;;;13.60;5.70;;;;;;;26.50;81.32;97318.78;5022790;28;20428;-82